Time;durP1;ratioP1;P1;durP2;ratioP2;P2;SDS_P1;SDS_P2;PMS_P1;PMS_P2;Temp;Humidity;BMP_temperature;BMP_pressure;BME280_temperature;BME280_humidity;BME280_pressure;Samples;Min_cycle;Max_cycle;Signal;HPM_P1;HPM_P2
2021/06/20 00:00:25;;;;;;;20.73;18.77;;;19.70;99.90;;;;;;4996048;28;20342;-82
2021/06/20 00:03:14;;;;;;;21.10;19.07;;;19.70;99.90;;;;;;4998295;28;20294;-85
2021/06/20 00:05:50;;;;;;;21.90;19.63;;;19.60;99.90;;;;;;5004006;28;20202;-83
2021/06/20 00:08:18;;;;;;;21.27;19.17;;;19.60;99.90;;;;;;5011152;28;20222;-82
2021/06/20 00:10:49;;;;;;;20.90;18.97;;;19.60;99.90;;;;;;5005738;28;20764;-85
2021/06/20 00:13:20;;;;;;;20.60;18.80;;;19.60;99.90;;;;;;4993228;28;20258;-85
2021/06/20 00:15:50;;;;;;;21.53;19.37;;;19.60;99.90;;;;;;5001863;28;20219;-84
2021/06/20 00:18:18;;;;;;;22.10;19.97;;;19.50;99.90;;;;;;5006984;28;20212;-83
2021/06/20 00:20:48;;;;;;;21.23;19.17;;;19.50;99.90;;;;;;5017608;28;20203;-84
2021/06/20 00:23:18;;;;;;;20.70;18.77;;;19.50;99.90;;;;;;4992615;28;20207;-85
2021/06/20 00:25:46;;;;;;;20.33;18.57;;;19.50;99.90;;;;;;5008705;28;20207;-84
2021/06/20 00:28:15;;;;;;;19.80;18.10;;;19.50;99.90;;;;;;4994814;28;21444;-83
2021/06/20 00:30:45;;;;;;;21.60;19.50;;;19.40;99.90;;;;;;4995947;28;20216;-85
2021/06/20 00:33:14;;;;;;;20.93;19.03;;;19.40;99.90;;;;;;4993563;28;20325;-86
2021/06/20 00:35:43;;;;;;;21.97;19.80;;;19.40;99.90;;;;;;4996941;28;20446;-86
2021/06/20 00:38:12;;;;;;;21.20;19.13;;;19.40;99.90;;;;;;4992854;28;20219;-88
2021/06/20 00:40:40;;;;;;;20.30;18.47;;;19.40;99.90;;;;;;4996390;28;20277;-83
2021/06/20 00:43:09;;;;;;;20.43;18.60;;;19.30;99.90;;;;;;4990510;28;20231;-84
2021/06/20 00:45:38;;;;;;;21.17;19.17;;;19.30;99.90;;;;;;4994076;28;20207;-84
2021/06/20 00:48:09;;;;;;;22.00;19.73;;;19.30;99.90;;;;;;4989596;28;20269;-84
2021/06/20 00:50:37;;;;;;;21.20;19.20;;;19.20;99.90;;;;;;4994798;28;20207;-85
2021/06/20 00:53:06;;;;;;;19.67;17.97;;;19.20;99.90;;;;;;4993884;28;20701;-82
2021/06/20 00:55:37;;;;;;;21.07;19.27;;;19.20;99.90;;;;;;5002084;28;20203;-82
2021/06/20 00:58:07;;;;;;;20.80;18.80;;;19.10;99.90;;;;;;5001172;28;20219;-82
2021/06/20 01:00:37;;;;;;;21.07;18.83;;;19.10;99.90;;;;;;4995656;28;20215;-85
2021/06/20 01:03:07;;;;;;;22.03;19.70;;;19.10;99.90;;;;;;4995327;28;20203;-86
2021/06/20 01:05:36;;;;;;;21.23;19.27;;;19.10;99.90;;;;;;5001489;28;20211;-86
2021/06/20 01:08:05;;;;;;;22.77;20.43;;;19.00;99.90;;;;;;4989000;28;20236;-84
2021/06/20 01:10:35;;;;;;;21.10;18.97;;;19.00;99.90;;;;;;4993036;28;20291;-82
2021/06/20 01:13:06;;;;;;;22.13;20.03;;;19.00;99.90;;;;;;4998760;28;20215;-83
2021/06/20 01:15:35;;;;;;;21.50;19.67;;;18.90;99.90;;;;;;5006534;28;20200;-84
2021/06/20 01:18:04;;;;;;;24.07;21.53;;;18.90;99.90;;;;;;4999330;28;20207;-86
2021/06/20 01:20:34;;;;;;;24.37;22.00;;;18.90;99.90;;;;;;4990180;28;20209;-83
2021/06/20 01:23:05;;;;;;;21.83;19.70;;;18.80;99.90;;;;;;4995354;28;20207;-85
2021/06/20 01:25:35;;;;;;;22.27;20.13;;;18.90;99.90;;;;;;5001906;28;20289;-83
2021/06/20 01:28:07;;;;;;;23.20;21.10;;;18.80;99.90;;;;;;5005344;28;20204;-86
2021/06/20 01:30:37;;;;;;;26.53;24.03;;;18.80;99.90;;;;;;4997762;28;20217;-84
2021/06/20 01:33:09;;;;;;;27.73;25.00;;;18.70;99.90;;;;;;5014048;28;20238;-87
2021/06/20 01:35:39;;;;;;;27.23;24.57;;;18.70;99.90;;;;;;5007056;28;20215;-86
2021/06/20 01:38:11;;;;;;;28.33;25.63;;;18.70;99.90;;;;;;4987663;28;20211;-84
2021/06/20 01:40:40;;;;;;;26.23;23.63;;;18.70;99.90;;;;;;4992203;28;20378;-86
2021/06/20 01:43:09;;;;;;;26.70;23.97;;;18.80;99.90;;;;;;4988639;28;20241;-87
2021/06/20 01:45:39;;;;;;;25.57;23.07;;;18.70;99.90;;;;;;4993448;28;20215;-84
2021/06/20 01:48:08;;;;;;;26.07;23.57;;;18.70;99.90;;;;;;4997971;28;20636;-83
2021/06/20 01:50:37;;;;;;;26.13;23.43;;;18.60;99.90;;;;;;4997967;28;20721;-85
2021/06/20 01:53:09;;;;;;;27.20;24.60;;;18.60;99.90;;;;;;5001329;28;20238;-84
2021/06/20 01:55:40;;;;;;;28.97;26.07;;;18.60;99.90;;;;;;5004934;28;20214;-83
2021/06/20 01:58:12;;;;;;;28.27;25.43;;;18.60;99.90;;;;;;5017388;28;20510;-84
2021/06/20 02:00:43;;;;;;;29.47;26.60;;;18.60;99.90;;;;;;5009121;28;20195;-85
2021/06/20 02:03:14;;;;;;;27.73;25.03;;;18.50;99.90;;;;;;5018047;28;20239;-86
2021/06/20 02:05:45;;;;;;;28.17;25.57;;;18.40;99.90;;;;;;5020058;28;20822;-84
2021/06/20 02:08:19;;;;;;;27.60;25.00;;;18.40;99.90;;;;;;5009367;28;20266;-84
2021/06/20 02:10:49;;;;;;;27.27;24.70;;;18.30;99.90;;;;;;5015348;28;20207;-83
2021/06/20 02:13:17;;;;;;;27.30;24.57;;;18.30;99.90;;;;;;5005483;28;20257;-82
2021/06/20 02:15:46;;;;;;;29.93;26.93;;;18.20;99.90;;;;;;5002469;28;20286;-83
2021/06/20 02:18:15;;;;;;;31.47;28.37;;;18.20;99.90;;;;;;4994060;28;20719;-84
2021/06/20 02:20:44;;;;;;;29.47;26.57;;;18.30;99.90;;;;;;5000857;28;20231;-83
2021/06/20 02:23:13;;;;;;;28.90;26.23;;;18.30;99.90;;;;;;4997530;28;20199;-83
2021/06/20 02:25:43;;;;;;;28.90;26.03;;;18.40;99.90;;;;;;4993386;28;20206;-85
2021/06/20 02:28:12;;;;;;;28.57;25.90;;;18.30;99.90;;;;;;4990805;28;20203;-86
2021/06/20 02:30:40;;;;;;;28.43;25.73;;;18.30;99.90;;;;;;4998617;28;20207;-85
2021/06/20 02:33:09;;;;;;;27.70;25.00;;;18.40;99.90;;;;;;4992759;28;20223;-83
2021/06/20 02:35:38;;;;;;;31.00;28.00;;;18.40;99.90;;;;;;5013362;28;20225;-85
2021/06/20 02:38:06;;;;;;;31.10;28.13;;;18.40;99.90;;;;;;5012374;28;20222;-86
2021/06/20 02:40:35;;;;;;;27.07;24.60;;;18.50;99.90;;;;;;5018284;28;20214;-84
2021/06/20 02:43:05;;;;;;;26.43;23.97;;;18.50;99.90;;;;;;5014315;28;20199;-82
2021/06/20 02:45:34;;;;;;;27.03;24.53;;;18.50;99.90;;;;;;5010563;28;20191;-83
2021/06/20 02:48:03;;;;;;;28.17;25.53;;;18.50;99.90;;;;;;5011825;28;20192;-82
2021/06/20 02:50:31;;;;;;;28.60;26.00;;;18.40;99.90;;;;;;5015649;28;20254;-84
2021/06/20 02:53:00;;;;;;;27.50;24.80;;;18.40;99.90;;;;;;5021068;28;20260;-83
2021/06/20 02:55:29;;;;;;;29.53;26.73;;;18.40;99.90;;;;;;5007059;28;20227;-85
2021/06/20 02:58:00;;;;;;;28.60;26.00;;;18.40;99.90;;;;;;5002622;28;20218;-84
2021/06/20 03:00:30;;;;;;;29.03;26.23;;;18.40;99.90;;;;;;5011460;28;20223;-87
2021/06/20 03:02:58;;;;;;;28.30;25.37;;;18.50;99.90;;;;;;5018816;28;20211;-86
2021/06/20 03:05:27;;;;;;;29.10;26.43;;;18.50;99.90;;;;;;5010470;28;20586;-83
2021/06/20 03:07:56;;;;;;;27.90;25.13;;;18.50;99.90;;;;;;4989256;28;20746;-83
2021/06/20 03:10:24;;;;;;;29.73;26.87;;;18.50;99.90;;;;;;4990952;28;20726;-82
2021/06/20 03:12:53;;;;;;;29.40;26.50;;;18.60;99.90;;;;;;4994945;28;20296;-83
2021/06/20 03:15:22;;;;;;;29.67;26.80;;;18.60;99.90;;;;;;4988656;28;20227;-82
2021/06/20 03:17:53;;;;;;;30.73;27.73;;;18.70;99.90;;;;;;4992087;28;20871;-85
2021/06/20 03:20:23;;;;;;;29.63;26.67;;;18.70;99.90;;;;;;4996744;28;20280;-84
2021/06/20 03:22:53;;;;;;;30.40;27.60;;;18.80;99.90;;;;;;4997663;28;20203;-84
2021/06/20 03:25:22;;;;;;;29.10;26.37;;;18.80;99.90;;;;;;4993988;28;20215;-85
2021/06/20 03:27:51;;;;;;;28.63;25.63;;;18.90;99.90;;;;;;4990147;28;20223;-85
2021/06/20 03:30:21;;;;;;;27.87;25.20;;;19.00;99.90;;;;;;4993527;28;20207;-82
2021/06/20 03:32:49;;;;;;;25.47;23.10;;;19.20;99.90;;;;;;4992126;28;20247;-84
2021/06/20 03:35:19;;;;;;;24.17;21.97;;;19.30;99.90;;;;;;4994645;28;20324;-84
2021/06/20 03:37:49;;;;;;;24.60;22.40;;;19.50;99.90;;;;;;4987016;28;20231;-83
2021/06/20 03:40:18;;;;;;;23.73;21.53;;;19.60;99.90;;;;;;4988449;28;20235;-84
2021/06/20 03:42:47;;;;;;;22.80;20.70;;;19.80;99.90;;;;;;4993815;28;20500;-83
2021/06/20 03:45:16;;;;;;;23.33;21.10;;;19.80;99.90;;;;;;5001012;28;20207;-84
2021/06/20 03:47:45;;;;;;;22.97;20.60;;;19.90;99.90;;;;;;4995324;28;20203;-83
2021/06/20 03:50:14;;;;;;;21.90;19.80;;;20.00;99.90;;;;;;5012473;28;20203;-82
2021/06/20 03:52:44;;;;;;;20.67;18.67;;;20.00;99.90;;;;;;4992046;28;20680;-86
2021/06/20 03:55:13;;;;;;;21.83;19.73;;;20.10;99.90;;;;;;4996997;28;20683;-84
2021/06/20 03:57:42;;;;;;;20.93;18.83;;;20.20;99.60;;;;;;4993959;28;21103;-83
2021/06/20 04:00:14;;;;;;;20.70;18.83;;;20.20;99.00;;;;;;4998858;28;20588;-85
2021/06/20 04:02:42;;;;;;;19.23;17.43;;;20.30;99.30;;;;;;4993161;28;20208;-84
2021/06/20 04:05:14;;;;;;;19.07;17.30;;;20.30;98.70;;;;;;4997146;28;20211;-85
2021/06/20 04:07:45;;;;;;;18.73;17.00;;;20.40;97.70;;;;;;5018820;28;20214;-83
2021/06/20 04:10:14;;;;;;;19.57;17.73;;;20.50;97.70;;;;;;5019021;28;20281;-84
2021/06/20 04:12:43;;;;;;;17.90;16.40;;;20.50;97.50;;;;;;5015143;28;20553;-83
2021/06/20 04:15:12;;;;;;;18.73;16.93;;;20.60;96.90;;;;;;5010752;28;20258;-82
2021/06/20 04:17:41;;;;;;;19.13;16.07;;;20.70;95.80;;;;;;5019309;28;20203;-84
2021/06/20 04:20:12;;;;;;;17.40;15.90;;;20.70;96.10;;;;;;5014592;28;20257;-81
2021/06/20 04:22:41;;;;;;;17.03;15.47;;;20.80;96.00;;;;;;4992454;28;20305;-87
2021/06/20 04:25:14;;;;;;;17.03;15.50;;;20.90;95.10;;;;;;5001306;28;20207;-82
2021/06/20 04:27:44;;;;;;;16.67;15.07;;;21.10;94.70;;;;;;4998691;28;20199;-82
2021/06/20 04:30:14;;;;;;;16.23;14.90;;;21.20;94.70;;;;;;5007982;28;20299;-82
2021/06/20 04:32:45;;;;;;;15.63;14.27;;;21.30;94.40;;;;;;5010789;28;20390;-85
2021/06/20 04:35:18;;;;;;;16.13;14.53;;;21.40;94.10;;;;;;5005109;28;20227;-82
2021/06/20 04:37:48;;;;;;;14.10;12.90;;;21.50;93.10;;;;;;4998897;28;20212;-82
2021/06/20 04:40:20;;;;;;;15.03;13.53;;;21.60;92.60;;;;;;4998882;28;20206;-84
2021/06/20 04:42:57;;;;;;;15.07;13.70;;;21.70;92.50;;;;;;4999081;28;20216;-82
2021/06/20 04:45:26;;;;;;;14.80;13.50;;;21.80;91.70;;;;;;4997734;28;20222;-84
2021/06/20 04:47:55;;;;;;;14.90;13.20;;;21.80;91.50;;;;;;4996003;28;20876;-84
2021/06/20 04:50:24;;;;;;;14.43;13.00;;;21.90;91.30;;;;;;4994713;28;20207;-84
2021/06/20 04:52:53;;;;;;;14.10;12.70;;;22.00;91.50;;;;;;4992450;28;20208;-83
2021/06/20 04:55:24;;;;;;;14.20;13.00;;;22.00;91.10;;;;;;4994857;28;20262;-83
2021/06/20 04:57:52;;;;;;;13.77;11.93;;;22.00;91.20;;;;;;4991214;28;20309;-85
2021/06/20 05:00:21;;;;;;;13.10;11.80;;;22.20;90.90;;;;;;5002452;28;20307;-84
2021/06/20 05:02:50;;;;;;;12.52;11.35;;;22.30;90.50;;;;;;4993572;28;21088;-83
2021/06/20 05:05:18;;;;;;;12.88;11.55;;;22.50;90.50;;;;;;4990696;28;20657;-82
2021/06/20 05:07:47;;;;;;;13.30;12.02;;;22.60;90.40;;;;;;4991783;28;20211;-82
2021/06/20 05:10:16;;;;;;;13.13;11.73;;;22.70;90.20;;;;;;4996886;28;20231;-83
2021/06/20 05:12:46;;;;;;;13.02;11.82;;;22.70;89.40;;;;;;4993420;28;20254;-82
2021/06/20 05:15:16;;;;;;;11.95;10.98;;;22.60;89.60;;;;;;4998632;28;20506;-84
2021/06/20 05:17:45;;;;;;;12.10;10.90;;;22.60;89.90;;;;;;4989403;28;20208;-84
2021/06/20 05:20:14;;;;;;;11.88;10.77;;;22.80;89.60;;;;;;4999840;28;20201;-82
2021/06/20 05:22:42;;;;;;;11.20;10.20;;;22.90;89.30;;;;;;4995983;28;20207;-83
2021/06/20 05:25:12;;;;;;;11.25;9.85;;;23.10;88.50;;;;;;4992976;28;20685;-82
2021/06/20 05:27:40;;;;;;;10.50;9.60;;;23.00;88.00;;;;;;4992083;28;20211;-84
2021/06/20 05:30:12;;;;;;;10.55;9.43;;;23.10;87.80;;;;;;4991760;28;20207;-83
2021/06/20 05:32:40;;;;;;;10.82;9.43;;;23.20;87.60;;;;;;4988193;28;20789;-83
2021/06/20 05:35:09;;;;;;;9.75;8.80;;;23.10;86.50;;;;;;4990330;28;20227;-84
2021/06/20 05:37:38;;;;;;;9.48;8.70;;;23.20;86.30;;;;;;4989261;28;20208;-84
2021/06/20 05:40:08;;;;;;;9.82;8.98;;;23.30;85.90;;;;;;4995037;28;20204;-82
2021/06/20 05:42:36;;;;;;;9.35;8.45;;;23.40;85.90;;;;;;4998870;28;20679;-86
2021/06/20 05:45:12;;;;;;;9.07;8.32;;;23.50;85.90;;;;;;4998114;28;20282;-84
2021/06/20 05:47:41;;;;;;;9.20;8.40;;;23.60;85.90;;;;;;4987189;28;20333;-83
2021/06/20 05:50:10;;;;;;;9.50;8.52;;;23.70;85.20;;;;;;4991083;28;20681;-82
2021/06/20 05:52:39;;;;;;;9.43;8.52;;;23.70;85.10;;;;;;4988837;28;20214;-84
2021/06/20 05:55:08;;;;;;;8.90;8.07;;;23.80;85.60;;;;;;4992044;28;20231;-86
2021/06/20 05:57:37;;;;;;;8.50;7.70;;;24.00;85.70;;;;;;4987079;28;20223;-83
2021/06/20 06:00:07;;;;;;;7.93;7.28;;;24.10;84.40;;;;;;4991769;28;20290;-85
2021/06/20 06:02:37;;;;;;;7.90;7.30;;;24.20;84.50;;;;;;4990980;28;20679;-84
2021/06/20 06:05:08;;;;;;;8.60;7.88;;;24.30;84.50;;;;;;4989585;28;20207;-84
2021/06/20 06:07:37;;;;;;;8.70;7.38;;;24.40;84.40;;;;;;4990495;28;20212;-84
2021/06/20 06:10:24;;;;;;;7.85;7.13;;;24.40;84.20;;;;;;4987570;28;20211;-83
2021/06/20 06:12:53;;;;;;;7.63;7.00;;;24.50;84.10;;;;;;4991287;28;20602;-84
2021/06/20 06:15:21;;;;;;;8.75;7.22;;;24.60;84.40;;;;;;4997395;28;20310;-84
2021/06/20 06:17:52;;;;;;;8.20;7.40;;;24.50;84.20;;;;;;4989151;28;20203;-83
2021/06/20 06:20:21;;;;;;;8.05;7.45;;;24.50;84.10;;;;;;4993139;28;20685;-84
2021/06/20 06:22:50;;;;;;;7.93;7.32;;;24.60;84.10;;;;;;4989331;28;20684;-84
2021/06/20 06:25:19;;;;;;;8.15;7.35;;;24.80;84.10;;;;;;4988859;28;20286;-84
2021/06/20 06:27:48;;;;;;;7.97;7.35;;;24.90;84.10;;;;;;4986848;28;20206;-83
2021/06/20 06:30:18;;;;;;;7.93;7.20;;;25.00;84.10;;;;;;4991440;28;20392;-83
2021/06/20 06:32:48;;;;;;;7.53;6.88;;;25.20;84.00;;;;;;4990665;28;20662;-83
2021/06/20 06:35:18;;;;;;;7.55;6.95;;;25.20;83.60;;;;;;4994313;28;20254;-82
2021/06/20 06:37:49;;;;;;;7.60;6.90;;;25.30;83.60;;;;;;4999045;28;20203;-84
2021/06/20 06:40:18;;;;;;;8.07;6.65;;;25.50;83.80;;;;;;5017407;28;20187;-82
2021/06/20 06:42:47;;;;;;;7.38;6.80;;;25.60;83.40;;;;;;4998986;28;20473;-82
2021/06/20 06:45:17;;;;;;;9.43;7.15;;;25.90;83.60;;;;;;5004638;28;20218;-84
2021/06/20 06:47:46;;;;;;;8.05;7.35;;;26.00;83.20;;;;;;4995429;28;20204;-83
2021/06/20 06:50:15;;;;;;;7.85;7.00;;;26.00;82.80;;;;;;4995138;28;20625;-82
2021/06/20 06:52:46;;;;;;;7.43;6.72;;;26.00;83.10;;;;;;4991292;28;20935;-83
2021/06/20 06:55:16;;;;;;;7.78;7.15;;;26.10;82.90;;;;;;4994172;28;20203;-83
2021/06/20 06:57:45;;;;;;;7.90;7.10;;;26.20;82.70;;;;;;4989604;28;20287;-84
2021/06/20 07:00:15;;;;;;;7.90;7.10;;;26.30;82.40;;;;;;4991394;28;20203;-85
2021/06/20 07:02:44;;;;;;;9.43;7.95;;;26.40;82.30;;;;;;4989071;28;20207;-83
2021/06/20 07:05:12;;;;;;;7.63;7.03;;;26.40;82.00;;;;;;4983551;28;20405;-83
2021/06/20 07:07:41;;;;;;;7.63;7.03;;;26.40;82.20;;;;;;4987789;28;20199;-85
2021/06/20 07:10:13;;;;;;;7.90;7.30;;;26.50;81.80;;;;;;4993193;28;20516;-86
2021/06/20 07:12:41;;;;;;;7.93;7.13;;;26.50;81.70;;;;;;4984795;28;20250;-86
2021/06/20 07:15:11;;;;;;;7.53;7.03;;;26.60;81.60;;;;;;4992225;28;20258;-85
2021/06/20 07:17:40;;;;;;;10.93;7.40;;;26.80;81.60;;;;;;4987930;28;20240;-85
2021/06/20 07:20:15;;;;;;;8.60;7.30;;;27.00;80.90;;;;;;4992778;28;20286;-84
2021/06/20 07:22:45;;;;;;;8.45;7.63;;;27.20;80.90;;;;;;4994547;28;20284;-83
2021/06/20 07:25:17;;;;;;;7.90;7.10;;;27.30;80.70;;;;;;4991846;28;20315;-83
2021/06/20 07:27:47;;;;;;;8.10;7.40;;;27.30;80.90;;;;;;4998914;28;20480;-84
2021/06/20 07:30:18;;;;;;;8.38;7.78;;;27.40;80.90;;;;;;4995822;28;20207;-84
2021/06/20 07:32:46;;;;;;;8.40;7.60;;;27.40;80.90;;;;;;5000001;28;20287;-84
2021/06/20 07:35:16;;;;;;;7.95;7.35;;;27.60;80.90;;;;;;5019770;28;20278;-83
2021/06/20 07:37:45;;;;;;;8.00;7.35;;;27.70;80.60;;;;;;5015504;28;20219;-84
2021/06/20 07:40:16;;;;;;;8.10;7.40;;;27.70;80.40;;;;;;5001287;28;20238;-83
2021/06/20 07:42:46;;;;;;;8.60;7.80;;;27.90;80.30;;;;;;4998418;28;20665;-84
2021/06/20 07:45:16;;;;;;;8.68;7.85;;;27.90;80.20;;;;;;4996204;28;20208;-83
2021/06/20 07:47:46;;;;;;;8.73;7.93;;;27.90;80.80;;;;;;4992133;28;20203;-83
2021/06/20 07:50:15;;;;;;;8.23;7.50;;;27.90;80.20;;;;;;4993540;28;20214;-83
2021/06/20 07:52:44;;;;;;;8.40;7.57;;;28.00;80.50;;;;;;4996139;28;20254;-84
2021/06/20 07:55:13;;;;;;;9.48;7.90;;;28.10;80.10;;;;;;4990736;28;20294;-82
2021/06/20 07:57:44;;;;;;;7.75;7.13;;;28.10;79.90;;;;;;4992256;28;20416;-82
2021/06/20 08:00:13;;;;;;;8.65;7.47;;;28.20;79.40;;;;;;4988246;28;20229;-83
2021/06/20 08:02:42;;;;;;;8.65;7.72;;;28.10;79.50;;;;;;4990092;28;20357;-85
2021/06/20 08:05:12;;;;;;;8.50;7.70;;;28.20;79.40;;;;;;4991691;28;20552;-85
2021/06/20 08:07:40;;;;;;;7.57;6.97;;;28.30;78.80;;;;;;4988602;28;20241;-84
2021/06/20 08:10:10;;;;;;;7.80;7.10;;;28.50;78.90;;;;;;4991365;28;20329;-86
2021/06/20 08:12:38;;;;;;;7.85;7.25;;;28.50;78.60;;;;;;4991126;28;20228;-83
2021/06/20 08:15:10;;;;;;;8.10;7.40;;;28.50;78.50;;;;;;4988578;28;20577;-85
2021/06/20 08:17:38;;;;;;;7.53;6.93;;;28.60;79.00;;;;;;4989772;28;20555;-84
2021/06/20 08:20:08;;;;;;;8.25;7.35;;;28.60;78.60;;;;;;4991956;28;20831;-83
2021/06/20 08:22:36;;;;;;;7.75;7.10;;;28.60;78.60;;;;;;4990763;28;20313;-88
2021/06/20 08:25:06;;;;;;;7.40;6.80;;;28.70;78.20;;;;;;4995298;28;20208;-83
2021/06/20 08:27:35;;;;;;;7.28;6.20;;;28.70;78.90;;;;;;4994408;28;20199;-83
2021/06/20 08:30:06;;;;;;;7.35;6.80;;;28.90;77.80;;;;;;4990243;28;20204;-85
2021/06/20 08:32:36;;;;;;;7.10;6.40;;;29.00;77.50;;;;;;4985446;28;20658;-83
2021/06/20 08:35:06;;;;;;;7.57;6.45;;;28.90;77.80;;;;;;5002379;28;20269;-87
2021/06/20 08:37:35;;;;;;;7.32;6.75;;;28.80;77.40;;;;;;4995386;28;20309;-84
2021/06/20 08:40:06;;;;;;;7.30;6.70;;;28.80;77.80;;;;;;4991106;28;20293;-84
2021/06/20 08:42:35;;;;;;;6.20;5.70;;;28.80;77.50;;;;;;5014616;28;20195;-86
2021/06/20 08:45:04;;;;;;;6.15;5.70;;;29.00;77.10;;;;;;4988398;28;20266;-85
2021/06/20 08:47:34;;;;;;;5.82;5.32;;;29.10;76.50;;;;;;5012734;28;20681;-84
2021/06/20 08:50:06;;;;;;;5.70;5.20;;;29.10;76.30;;;;;;5009261;28;20554;-84
2021/06/20 08:52:37;;;;;;;5.65;5.25;;;29.10;75.90;;;;;;5009203;28;20253;-84
2021/06/20 08:55:07;;;;;;;5.85;5.45;;;29.30;76.00;;;;;;5000147;28;20208;-83
2021/06/20 08:57:37;;;;;;;5.80;5.30;;;29.50;75.40;;;;;;5011980;28;20234;-83
2021/06/20 09:00:07;;;;;;;5.55;5.03;;;29.70;75.50;;;;;;5013459;28;20204;-82
2021/06/20 09:02:36;;;;;;;5.75;5.28;;;29.70;75.40;;;;;;5014377;28;20203;-85
2021/06/20 09:05:09;;;;;;;6.13;5.50;;;29.70;75.30;;;;;;5012617;28;20220;-85
2021/06/20 09:07:39;;;;;;;5.70;5.20;;;29.70;75.00;;;;;;5000883;28;20214;-83
2021/06/20 09:10:10;;;;;;;6.25;5.57;;;29.40;74.80;;;;;;4998730;28;20204;-85
2021/06/20 09:12:46;;;;;;;5.70;5.25;;;29.30;75.10;;;;;;4995721;28;20211;-82
2021/06/20 09:15:17;;;;;;;5.65;5.20;;;29.40;74.50;;;;;;4997257;28;20234;-84
2021/06/20 09:17:55;;;;;;;5.32;4.82;;;29.50;74.80;;;;;;4999184;28;20604;-84
2021/06/20 09:20:37;;;;;;;4.82;4.53;;;29.60;74.20;;;;;;4997496;28;20214;-83
2021/06/20 09:23:08;;;;;;;5.47;5.03;;;29.60;73.50;;;;;;4997471;28;20214;-83
2021/06/20 09:25:38;;;;;;;4.70;4.40;;;29.60;73.70;;;;;;4987835;28;20203;-83
2021/06/20 09:28:09;;;;;;;4.70;4.30;;;29.70;73.40;;;;;;4997828;28;20203;-84
2021/06/20 09:30:46;;;;;;;5.35;4.95;;;29.60;72.60;;;;;;5000353;28;20297;-83
2021/06/20 09:33:15;;;;;;;4.55;4.22;;;29.70;72.20;;;;;;4985671;28;20540;-83
2021/06/20 09:35:46;;;;;;;5.22;4.47;;;29.50;72.10;;;;;;4989242;28;20713;-85
2021/06/20 09:38:21;;;;;;;5.20;4.72;;;29.50;72.00;;;;;;4992879;28;20676;-84
2021/06/20 09:40:52;;;;;;;5.80;4.32;;;29.60;72.20;;;;;;4998477;28;20441;-83
2021/06/20 09:43:21;;;;;;;5.20;4.80;;;29.70;71.50;;;;;;5018036;28;20191;-83
2021/06/20 09:45:52;;;;;;;4.53;4.13;;;29.70;71.50;;;;;;5013863;28;20416;-86
2021/06/20 09:48:26;;;;;;;4.60;4.30;;;29.80;71.70;;;;;;5002789;28;20207;-85
2021/06/20 09:50:56;;;;;;;4.40;4.10;;;29.70;71.50;;;;;;4991990;28;20211;-83
2021/06/20 09:53:36;;;;;;;4.68;4.20;;;29.70;71.40;;;;;;4993153;28;20214;-84
2021/06/20 09:56:17;;;;;;;4.55;4.25;;;29.70;71.30;;;;;;4987549;28;20211;-84
2021/06/20 09:58:47;;;;;;;4.32;3.92;;;29.70;71.00;;;;;;4986872;28;20876;-87
2021/06/20 10:01:17;;;;;;;4.40;3.78;;;29.80;70.80;;;;;;4996738;28;20297;-83
2021/06/20 10:03:47;;;;;;;4.45;3.85;;;29.60;70.30;;;;;;5014346;28;20192;-84
2021/06/20 10:06:18;;;;;;;4.15;3.85;;;29.70;70.30;;;;;;5013385;28;20207;-83
2021/06/20 10:08:47;;;;;;;4.88;4.45;;;29.80;69.90;;;;;;4991280;28;20215;-83
2021/06/20 10:11:16;;;;;;;4.60;4.20;;;29.90;70.30;;;;;;4997188;28;20215;-83
2021/06/20 10:13:46;;;;;;;4.57;4.10;;;30.00;69.60;;;;;;5012015;28;20203;-84
2021/06/20 10:16:22;;;;;;;4.43;4.00;;;29.80;69.60;;;;;;4985589;28;20518;-82
2021/06/20 10:18:55;;;;;;;4.03;3.72;;;29.70;69.30;;;;;;4993648;28;20309;-85
2021/06/20 10:21:36;;;;;;;4.70;4.40;;;29.60;69.90;;;;;;4987634;28;20713;-84
2021/06/20 10:24:11;;;;;;;4.65;4.25;;;29.50;69.90;;;;;;4992769;28;20238;-82
2021/06/20 10:26:43;;;;;;;4.68;4.38;;;29.30;70.00;;;;;;4992081;28;20203;-84
2021/06/20 10:29:24;;;;;;;3.70;3.50;;;29.50;69.50;;;;;;4990262;28;20207;-83
2021/06/20 10:31:54;;;;;;;3.47;3.17;;;29.40;68.20;;;;;;4991788;28;20767;-83
2021/06/20 10:34:24;;;;;;;3.97;3.58;;;29.40;67.80;;;;;;4993889;28;20418;-85
2021/06/20 10:36:56;;;;;;;3.65;3.33;;;29.60;67.00;;;;;;4991621;28;20217;-83
2021/06/20 10:39:26;;;;;;;4.05;3.75;;;29.70;67.80;;;;;;4986812;28;20314;-85
2021/06/20 10:42:06;;;;;;;4.70;4.28;;;29.80;67.80;;;;;;4992133;28;20218;-83
2021/06/20 10:44:51;;;;;;;4.03;3.67;;;29.90;67.40;;;;;;4986726;28;20277;-86
2021/06/20 10:47:31;;;;;;;4.22;3.92;;;29.80;66.40;;;;;;4993398;28;20729;-83
2021/06/20 10:50:01;;;;;;;4.30;3.90;;;29.90;66.40;;;;;;5002690;28;20207;-84
2021/06/20 10:52:32;;;;;;;4.47;4.18;;;29.90;67.20;;;;;;5001006;28;20258;-85
2021/06/20 10:55:10;;;;;;;4.95;4.57;;;29.90;67.90;;;;;;4993780;28;20293;-83
2021/06/20 10:57:47;;;;;;;4.85;4.45;;;29.80;67.90;;;;;;4994895;28;20554;-84
2021/06/20 11:00:27;;;;;;;4.85;4.53;;;29.60;68.20;;;;;;4993444;28;20199;-84
2021/06/20 11:03:07;;;;;;;6.45;4.90;;;29.30;68.00;;;;;;4992917;28;20209;-84
2021/06/20 11:05:45;;;;;;;5.20;4.70;;;29.10;68.20;;;;;;5001234;28;20291;-84
2021/06/20 11:08:28;;;;;;;5.38;4.80;;;29.00;68.70;;;;;;4992318;28;20547;-84
2021/06/20 11:11:11;;;;;;;4.90;4.40;;;29.20;68.50;;;;;;4997417;28;20204;-83
2021/06/20 11:13:41;;;;;;;4.63;4.32;;;29.50;68.90;;;;;;5005270;28;20199;-87
2021/06/20 11:16:12;;;;;;;5.57;5.07;;;29.60;68.40;;;;;;4991762;28;20648;-83
2021/06/20 11:18:42;;;;;;;4.88;4.47;;;29.60;68.20;;;;;;4988671;28;20261;-85
2021/06/20 11:21:11;;;;;;;5.00;4.50;;;29.60;68.90;;;;;;4989208;28;20216;-84
2021/06/20 11:23:42;;;;;;;5.35;4.85;;;29.60;68.60;;;;;;4991986;28;20203;-85
2021/06/20 11:26:11;;;;;;;5.78;4.90;;;29.50;69.10;;;;;;4991645;28;20203;-84
2021/06/20 11:28:39;;;;;;;4.85;4.45;;;29.60;69.10;;;;;;4991528;28;20242;-83
2021/06/20 11:31:10;;;;;;;4.95;4.47;;;29.80;68.70;;;;;;5008827;28;20199;-82
2021/06/20 11:33:39;;;;;;;5.57;5.13;;;30.00;68.90;;;;;;5015063;28;20579;-85
2021/06/20 11:36:08;;;;;;;5.55;5.10;;;30.10;68.50;;;;;;4991416;28;20204;-84
2021/06/20 11:38:40;;;;;;;5.38;4.95;;;30.20;68.10;;;;;;4995690;28;20236;-84
2021/06/20 11:41:16;;;;;;;5.68;5.22;;;30.30;67.50;;;;;;4990950;28;20989;-85
2021/06/20 11:43:55;;;;;;;8.25;5.22;;;30.20;67.80;;;;;;4994874;28;20209;-87
2021/06/20 11:46:26;;;;;;;6.57;5.10;;;30.00;68.40;;;;;;4988401;28;20673;-84
2021/06/20 11:48:59;;;;;;;4.80;4.40;;;30.00;67.70;;;;;;4998490;28;20203;-83
2021/06/20 11:51:37;;;;;;;5.10;4.60;;;30.10;68.00;;;;;;4995837;28;20211;-83
2021/06/20 11:54:11;;;;;;;5.63;4.97;;;30.10;67.40;;;;;;4993007;28;20306;-84
2021/06/20 11:56:43;;;;;;;5.80;5.20;;;30.10;68.00;;;;;;4997466;28;20211;-85
2021/06/20 11:59:11;;;;;;;5.18;4.68;;;30.20;68.30;;;;;;4993584;28;20314;-85
2021/06/20 12:01:46;;;;;;;5.55;5.05;;;30.20;68.30;;;;;;4997112;28;20258;-85
2021/06/20 12:04:21;;;;;;;5.40;5.00;;;30.20;67.90;;;;;;4989991;28;20601;-83
2021/06/20 12:06:51;;;;;;;5.25;4.75;;;30.10;67.50;;;;;;4991228;28;20203;-85
2021/06/20 12:09:22;;;;;;;5.18;4.78;;;30.10;68.00;;;;;;5004535;28;20816;-84
2021/06/20 12:12:02;;;;;;;5.47;4.97;;;30.00;68.10;;;;;;4997954;28;20215;-85
2021/06/20 12:14:32;;;;;;;5.50;4.90;;;29.80;67.70;;;;;;4993498;28;20207;-86
2021/06/20 12:17:03;;;;;;;5.28;4.88;;;29.80;68.20;;;;;;4992708;28;20211;-83
2021/06/20 12:19:33;;;;;;;6.07;4.80;;;29.70;68.00;;;;;;4994573;28;20255;-85
2021/06/20 12:22:11;;;;;;;4.78;4.30;;;29.80;68.30;;;;;;4992603;28;20816;-85
2021/06/20 12:24:42;;;;;;;5.22;4.72;;;30.20;67.90;;;;;;4995189;28;20206;-83
2021/06/20 12:27:14;;;;;;;5.35;4.85;;;30.50;68.20;;;;;;4994601;28;20349;-86
2021/06/20 12:29:43;;;;;;;5.13;4.53;;;30.90;67.70;;;;;;4994744;28;20211;-86
2021/06/20 12:32:16;;;;;;;5.13;4.70;;;31.30;67.90;;;;;;4993564;28;20239;-87
2021/06/20 12:34:48;;;;;;;7.20;4.68;;;31.60;67.20;;;;;;4998853;28;20655;-83
2021/06/20 12:37:18;;;;;;;4.80;4.40;;;31.60;67.90;;;;;;5002233;28;20318;-85
2021/06/20 12:39:50;;;;;;;5.50;4.68;;;31.70;67.50;;;;;;4998779;28;20670;-83
2021/06/20 12:42:21;;;;;;;5.43;4.93;;;31.70;66.70;;;;;;4993621;28;20219;-83
2021/06/20 12:44:53;;;;;;;5.05;4.65;;;31.50;66.80;;;;;;5003973;28;20221;-82
2021/06/20 12:47:32;;;;;;;6.50;5.90;;;31.00;66.70;;;;;;4994408;28;20227;-85
2021/06/20 12:50:02;;;;;;;5.18;4.68;;;30.90;67.20;;;;;;4991694;28;20235;-84
2021/06/20 12:52:36;;;;;;;7.65;5.03;;;31.40;68.20;;;;;;4990728;28;20208;-86
2021/06/20 12:55:15;;;;;;;8.25;5.60;;;31.80;67.10;;;;;;4994339;28;20199;-83